sensor_id;sensor_type;location;lat;lon;timestamp;P1;durP1;ratioP1;P2;durP2;ratioP2
69621;SDS011;56841;55.964;37.674;2023-01-28T00:01:49;2.72;;;1.08;;
69621;SDS011;56841;55.964;37.674;2023-01-28T00:04:16;2.75;;;1.08;;
69621;SDS011;56841;55.964;37.674;2023-01-28T00:06:42;2.88;;;0.90;;
69621;SDS011;56841;55.964;37.674;2023-01-28T00:09:08;2.60;;;1.10;;
69621;SDS011;56841;55.964;37.674;2023-01-28T00:11:34;2.50;;;0.85;;
69621;SDS011;56841;55.964;37.674;2023-01-28T00:14:00;3.83;;;1.30;;
69621;SDS011;56841;55.964;37.674;2023-01-28T00:16:29;3.38;;;0.90;;
69621;SDS011;56841;55.964;37.674;2023-01-28T00:18:54;2.60;;;1.02;;
69621;SDS011;56841;55.964;37.674;2023-01-28T00:21:21;2.60;;;0.80;;
69621;SDS011;56841;55.964;37.674;2023-01-28T00:23:49;2.97;;;1.25;;
69621;SDS011;56841;55.964;37.674;2023-01-28T00:26:17;2.83;;;1.10;;
69621;SDS011;56841;55.964;37.674;2023-01-28T00:28:44;3.17;;;1.20;;
69621;SDS011;56841;55.964;37.674;2023-01-28T00:31:15;2.42;;;0.90;;
69621;SDS011;56841;55.964;37.674;2023-01-28T00:33:49;3.65;;;1.50;;
69621;SDS011;56841;55.964;37.674;2023-01-28T00:36:16;3.80;;;1.20;;
69621;SDS011;56841;55.964;37.674;2023-01-28T00:38:42;2.78;;;1.20;;
69621;SDS011;56841;55.964;37.674;2023-01-28T00:41:16;3.53;;;1.40;;
69621;SDS011;56841;55.964;37.674;2023-01-28T00:43:43;3.20;;;1.10;;
69621;SDS011;56841;55.964;37.674;2023-01-28T00:46:10;2.72;;;1.10;;
69621;SDS011;56841;55.964;37.674;2023-01-28T00:48:38;2.90;;;1.20;;
69621;SDS011;56841;55.964;37.674;2023-01-28T00:51:05;2.92;;;1.20;;
69621;SDS011;56841;55.964;37.674;2023-01-28T00:53:32;3.13;;;1.20;;
69621;SDS011;56841;55.964;37.674;2023-01-28T00:56:02;3.45;;;1.30;;
69621;SDS011;56841;55.964;37.674;2023-01-28T00:58:31;3.13;;;1.20;;
69621;SDS011;56841;55.964;37.674;2023-01-28T01:01:11;4.93;;;1.30;;
69621;SDS011;56841;55.964;37.674;2023-01-28T01:03:41;3.63;;;1.30;;
69621;SDS011;56841;55.964;37.674;2023-01-28T01:06:07;3.47;;;1.40;;
69621;SDS011;56841;55.964;37.674;2023-01-28T01:08:34;3.38;;;1.35;;
69621;SDS011;56841;55.964;37.674;2023-01-28T01:11:06;4.15;;;1.42;;
69621;SDS011;56841;55.964;37.674;2023-01-28T01:13:32;4.75;;;1.45;;
69621;SDS011;56841;55.964;37.674;2023-01-28T01:16:06;4.93;;;1.40;;
69621;SDS011;56841;55.964;37.674;2023-01-28T01:18:36;5.55;;;1.50;;
69621;SDS011;56841;55.964;37.674;2023-01-28T01:21:06;4.20;;;1.50;;
69621;SDS011;56841;55.964;37.674;2023-01-28T01:23:34;3.97;;;1.30;;
69621;SDS011;56841;55.964;37.674;2023-01-28T01:25:59;3.53;;;1.40;;
69621;SDS011;56841;55.964;37.674;2023-01-28T01:28:27;4.78;;;1.40;;
69621;SDS011;56841;55.964;37.674;2023-01-28T01:31:00;4.53;;;1.50;;
69621;SDS011;56841;55.964;37.674;2023-01-28T01:33:35;4.10;;;1.35;;
69621;SDS011;56841;55.964;37.674;2023-01-28T01:36:03;3.80;;;1.40;;
69621;SDS011;56841;55.964;37.674;2023-01-28T01:38:30;3.50;;;1.30;;
69621;SDS011;56841;55.964;37.674;2023-01-28T01:40:58;3.83;;;1.42;;
69621;SDS011;56841;55.964;37.674;2023-01-28T01:43:49;4.50;;;1.45;;
69621;SDS011;56841;55.964;37.674;2023-01-28T01:46:18;3.08;;;1.20;;
69621;SDS011;56841;55.964;37.674;2023-01-28T01:48:59;3.70;;;1.30;;
69621;SDS011;56841;55.964;37.674;2023-01-28T01:51:33;4.25;;;1.23;;
69621;SDS011;56841;55.964;37.674;2023-01-28T01:54:00;3.67;;;1.08;;
69621;SDS011;56841;55.964;37.674;2023-01-28T01:56:29;2.00;;;0.90;;
69621;SDS011;56841;55.964;37.674;2023-01-28T01:59:00;4.20;;;0.90;;
69621;SDS011;56841;55.964;37.674;2023-01-28T02:01:30;2.83;;;1.00;;
69621;SDS011;56841;55.964;37.674;2023-01-28T02:04:02;2.90;;;1.25;;
69621;SDS011;56841;55.964;37.674;2023-01-28T02:06:33;2.97;;;1.00;;
69621;SDS011;56841;55.964;37.674;2023-01-28T02:09:00;3.17;;;1.08;;
69621;SDS011;56841;55.964;37.674;2023-01-28T02:11:28;3.55;;;1.30;;
69621;SDS011;56841;55.964;37.674;2023-01-28T02:13:58;4.38;;;1.20;;
69621;SDS011;56841;55.964;37.674;2023-01-28T02:16:27;2.90;;;0.95;;
69621;SDS011;56841;55.964;37.674;2023-01-28T02:18:53;3.45;;;1.23;;
69621;SDS011;56841;55.964;37.674;2023-01-28T02:21:42;3.25;;;0.90;;
69621;SDS011;56841;55.964;37.674;2023-01-28T02:30:10;2.58;;;1.00;;
69621;SDS011;56841;55.964;37.674;2023-01-28T02:33:18;3.78;;;1.23;;
69621;SDS011;56841;55.964;37.674;2023-01-28T02:35:48;2.63;;;0.73;;
69621;SDS011;56841;55.964;37.674;2023-01-28T02:38:28;4.20;;;1.10;;
69621;SDS011;56841;55.964;37.674;2023-01-28T02:41:04;2.97;;;0.90;;
69621;SDS011;56841;55.964;37.674;2023-01-28T02:46:09;1.85;;;0.60;;
69621;SDS011;56841;55.964;37.674;2023-01-28T02:49:02;2.53;;;0.80;;
69621;SDS011;56841;55.964;37.674;2023-01-28T02:51:35;3.20;;;0.90;;
69621;SDS011;56841;55.964;37.674;2023-01-28T02:56:52;3.60;;;0.98;;
69621;SDS011;56841;55.964;37.674;2023-01-28T02:59:27;2.22;;;0.90;;
69621;SDS011;56841;55.964;37.674;2023-01-28T03:07:31;1.92;;;0.60;;
69621;SDS011;56841;55.964;37.674;2023-01-28T03:10:02;3.42;;;1.05;;
69621;SDS011;56841;55.964;37.674;2023-01-28T03:12:31;3.97;;;0.90;;
69621;SDS011;56841;55.964;37.674;2023-01-28T03:15:22;2.75;;;0.90;;
69621;SDS011;56841;55.964;37.674;2023-01-28T03:18:15;1.90;;;0.85;;
69621;SDS011;56841;55.964;37.674;2023-01-28T03:27:25;2.42;;;0.77;;
69621;SDS011;56841;55.964;37.674;2023-01-28T03:30:18;1.90;;;0.52;;
69621;SDS011;56841;55.964;37.674;2023-01-28T03:33:11;2.28;;;0.60;;
69621;SDS011;56841;55.964;37.674;2023-01-28T03:35:56;1.55;;;0.60;;
69621;SDS011;56841;55.964;37.674;2023-01-28T03:38:42;2.45;;;0.70;;
69621;SDS011;56841;55.964;37.674;2023-01-28T03:41:19;2.35;;;0.73;;
69621;SDS011;56841;55.964;37.674;2023-01-28T03:43:46;2.20;;;0.93;;
69621;SDS011;56841;55.964;37.674;2023-01-28T03:46:13;2.33;;;0.85;;
69621;SDS011;56841;55.964;37.674;2023-01-28T03:48:38;2.25;;;0.80;;
69621;SDS011;56841;55.964;37.674;2023-01-28T03:51:07;2.50;;;0.85;;
69621;SDS011;56841;55.964;37.674;2023-01-28T03:55:58;3.25;;;0.70;;
69621;SDS011;56841;55.964;37.674;2023-01-28T03:58:24;2.90;;;0.80;;
69621;SDS011;56841;55.964;37.674;2023-01-28T04:00:52;2.53;;;0.98;;
69621;SDS011;56841;55.964;37.674;2023-01-28T04:03:18;3.25;;;1.15;;
69621;SDS011;56841;55.964;37.674;2023-01-28T04:06:08;4.20;;;1.20;;
69621;SDS011;56841;55.964;37.674;2023-01-28T04:08:54;2.75;;;0.80;;
69621;SDS011;56841;55.964;37.674;2023-01-28T04:11:52;2.78;;;0.80;;
69621;SDS011;56841;55.964;37.674;2023-01-28T04:14:26;3.10;;;1.00;;
69621;SDS011;56841;55.964;37.674;2023-01-28T04:16:56;4.22;;;1.10;;
69621;SDS011;56841;55.964;37.674;2023-01-28T04:19:24;3.10;;;1.00;;
69621;SDS011;56841;55.964;37.674;2023-01-28T04:21:52;3.42;;;1.20;;
69621;SDS011;56841;55.964;37.674;2023-01-28T04:24:19;3.63;;;1.30;;
69621;SDS011;56841;55.964;37.674;2023-01-28T04:26:45;5.25;;;1.35;;
69621;SDS011;56841;55.964;37.674;2023-01-28T04:29:13;4.32;;;1.52;;
69621;SDS011;56841;55.964;37.674;2023-01-28T04:34:32;3.65;;;1.30;;
69621;SDS011;56841;55.964;37.674;2023-01-28T04:37:18;4.35;;;1.40;;
69621;SDS011;56841;55.964;37.674;2023-01-28T04:40:10;3.53;;;1.38;;
69621;SDS011;56841;55.964;37.674;2023-01-28T04:42:51;4.07;;;1.55;;
69621;SDS011;56841;55.964;37.674;2023-01-28T04:45:38;4.00;;;1.80;;
69621;SDS011;56841;55.964;37.674;2023-01-28T04:48:22;6.32;;;2.00;;
69621;SDS011;56841;55.964;37.674;2023-01-28T04:51:14;3.88;;;1.50;;
69621;SDS011;56841;55.964;37.674;2023-01-28T04:53:49;5.00;;;1.88;;
69621;SDS011;56841;55.964;37.674;2023-01-28T04:56:30;4.80;;;1.80;;
69621;SDS011;56841;55.964;37.674;2023-01-28T04:58:56;5.70;;;1.98;;
69621;SDS011;56841;55.964;37.674;2023-01-28T05:01:22;5.47;;;1.73;;
69621;SDS011;56841;55.964;37.674;2023-01-28T05:03:49;7.20;;;2.00;;
69621;SDS011;56841;55.964;37.674;2023-01-28T05:06:26;6.55;;;2.20;;
69621;SDS011;56841;55.964;37.674;2023-01-28T05:08:54;9.85;;;3.35;;
69621;SDS011;56841;55.964;37.674;2023-01-28T05:11:20;6.03;;;2.10;;
69621;SDS011;56841;55.964;37.674;2023-01-28T05:13:51;6.93;;;2.25;;
69621;SDS011;56841;55.964;37.674;2023-01-28T05:16:19;6.82;;;2.38;;
69621;SDS011;56841;55.964;37.674;2023-01-28T05:18:45;5.85;;;2.38;;
69621;SDS011;56841;55.964;37.674;2023-01-28T05:23:44;7.75;;;2.28;;
69621;SDS011;56841;55.964;37.674;2023-01-28T05:26:10;6.70;;;2.33;;
69621;SDS011;56841;55.964;37.674;2023-01-28T05:28:36;7.15;;;2.42;;
69621;SDS011;56841;55.964;37.674;2023-01-28T05:33:28;8.23;;;2.88;;
69621;SDS011;56841;55.964;37.674;2023-01-28T05:35:55;10.13;;;2.80;;
69621;SDS011;56841;55.964;37.674;2023-01-28T05:40:47;8.23;;;3.08;;
69621;SDS011;56841;55.964;37.674;2023-01-28T05:43:13;10.60;;;3.80;;
69621;SDS011;56841;55.964;37.674;2023-01-28T05:45:47;13.63;;;4.85;;
69621;SDS011;56841;55.964;37.674;2023-01-28T05:48:35;15.32;;;4.40;;
69621;SDS011;56841;55.964;37.674;2023-01-28T05:51:16;11.07;;;4.85;;
69621;SDS011;56841;55.964;37.674;2023-01-28T05:53:46;13.95;;;4.63;;
69621;SDS011;56841;55.964;37.674;2023-01-28T05:58:39;12.88;;;4.30;;
69621;SDS011;56841;55.964;37.674;2023-01-28T06:01:05;15.02;;;4.68;;
69621;SDS011;56841;55.964;37.674;2023-01-28T06:03:41;13.60;;;5.22;;
69621;SDS011;56841;55.964;37.674;2023-01-28T06:08:33;12.40;;;4.15;;
69621;SDS011;56841;55.964;37.674;2023-01-28T06:11:01;13.75;;;4.68;;
69621;SDS011;56841;55.964;37.674;2023-01-28T06:13:31;14.77;;;4.65;;
69621;SDS011;56841;55.964;37.674;2023-01-28T06:16:21;14.05;;;4.72;;
69621;SDS011;56841;55.964;37.674;2023-01-28T06:19:05;14.68;;;5.03;;
69621;SDS011;56841;55.964;37.674;2023-01-28T06:21:31;13.00;;;5.00;;
69621;SDS011;56841;55.964;37.674;2023-01-28T06:26:23;13.35;;;4.13;;
69621;SDS011;56841;55.964;37.674;2023-01-28T06:28:49;10.07;;;4.10;;
69621;SDS011;56841;55.964;37.674;2023-01-28T06:33:41;13.82;;;4.90;;
69621;SDS011;56841;55.964;37.674;2023-01-28T06:38:32;12.68;;;4.47;;
69621;SDS011;56841;55.964;37.674;2023-01-28T06:40:59;10.68;;;4.18;;
69621;SDS011;56841;55.964;37.674;2023-01-28T06:45:53;11.95;;;3.90;;
69621;SDS011;56841;55.964;37.674;2023-01-28T06:48:19;8.82;;;3.50;;
69621;SDS011;56841;55.964;37.674;2023-01-28T06:50:46;12.05;;;4.25;;
69621;SDS011;56841;55.964;37.674;2023-01-28T06:53:12;11.82;;;4.20;;
69621;SDS011;56841;55.964;37.674;2023-01-28T06:55:39;11.57;;;4.57;;
69621;SDS011;56841;55.964;37.674;2023-01-28T07:00:30;9.15;;;3.40;;
69621;SDS011;56841;55.964;37.674;2023-01-28T07:02:56;9.02;;;3.50;;
69621;SDS011;56841;55.964;37.674;2023-01-28T07:05:22;8.80;;;3.28;;
69621;SDS011;56841;55.964;37.674;2023-01-28T07:07:48;13.45;;;4.07;;
69621;SDS011;56841;55.964;37.674;2023-01-28T07:12:40;11.52;;;4.00;;
69621;SDS011;56841;55.964;37.674;2023-01-28T07:17:32;11.57;;;3.45;;
69621;SDS011;56841;55.964;37.674;2023-01-28T07:22:23;11.13;;;4.38;;
69621;SDS011;56841;55.964;37.674;2023-01-28T07:27:14;12.02;;;3.80;;
69621;SDS011;56841;55.964;37.674;2023-01-28T07:29:40;13.32;;;4.45;;
69621;SDS011;56841;55.964;37.674;2023-01-28T07:34:32;9.82;;;3.75;;
69621;SDS011;56841;55.964;37.674;2023-01-28T07:36:58;9.98;;;3.85;;
69621;SDS011;56841;55.964;37.674;2023-01-28T07:41:49;10.65;;;4.13;;
69621;SDS011;56841;55.964;37.674;2023-01-28T07:44:30;16.75;;;5.70;;
69621;SDS011;56841;55.964;37.674;2023-01-28T07:49:22;13.82;;;4.18;;
69621;SDS011;56841;55.964;37.674;2023-01-28T07:51:48;10.38;;;3.75;;
69621;SDS011;56841;55.964;37.674;2023-01-28T07:54:15;9.57;;;3.67;;
69621;SDS011;56841;55.964;37.674;2023-01-28T07:56:41;11.38;;;3.95;;
69621;SDS011;56841;55.964;37.674;2023-01-28T08:01:33;12.85;;;4.78;;
69621;SDS011;56841;55.964;37.674;2023-01-28T08:03:59;12.00;;;4.30;;
69621;SDS011;56841;55.964;37.674;2023-01-28T08:08:52;10.73;;;3.63;;
69621;SDS011;56841;55.964;37.674;2023-01-28T08:13:43;14.05;;;5.15;;
69621;SDS011;56841;55.964;37.674;2023-01-28T08:18:34;11.38;;;3.90;;
69621;SDS011;56841;55.964;37.674;2023-01-28T08:23:26;12.25;;;4.28;;
69621;SDS011;56841;55.964;37.674;2023-01-28T08:25:53;13.75;;;5.35;;
69621;SDS011;56841;55.964;37.674;2023-01-28T08:28:19;14.40;;;5.53;;
69621;SDS011;56841;55.964;37.674;2023-01-28T08:30:46;15.48;;;5.60;;
69621;SDS011;56841;55.964;37.674;2023-01-28T08:33:12;11.52;;;4.30;;
69621;SDS011;56841;55.964;37.674;2023-01-28T08:35:39;11.98;;;4.60;;
69621;SDS011;56841;55.964;37.674;2023-01-28T08:38:05;11.15;;;4.80;;
69621;SDS011;56841;55.964;37.674;2023-01-28T08:40:32;12.23;;;4.45;;
69621;SDS011;56841;55.964;37.674;2023-01-28T08:42:58;12.32;;;4.22;;
69621;SDS011;56841;55.964;37.674;2023-01-28T08:45:25;13.23;;;4.43;;
69621;SDS011;56841;55.964;37.674;2023-01-28T08:47:55;9.63;;;3.63;;
69621;SDS011;56841;55.964;37.674;2023-01-28T08:50:26;11.60;;;4.32;;
69621;SDS011;56841;55.964;37.674;2023-01-28T08:52:55;10.15;;;4.00;;
69621;SDS011;56841;55.964;37.674;2023-01-28T08:55:24;11.70;;;4.43;;
69621;SDS011;56841;55.964;37.674;2023-01-28T08:57:52;12.48;;;4.30;;
69621;SDS011;56841;55.964;37.674;2023-01-28T09:00:18;10.43;;;3.92;;
69621;SDS011;56841;55.964;37.674;2023-01-28T09:02:45;11.85;;;4.97;;
69621;SDS011;56841;55.964;37.674;2023-01-28T09:05:11;10.25;;;4.45;;
69621;SDS011;56841;55.964;37.674;2023-01-28T09:10:03;9.55;;;3.72;;
69621;SDS011;56841;55.964;37.674;2023-01-28T09:12:31;15.35;;;5.35;;
69621;SDS011;56841;55.964;37.674;2023-01-28T09:14:57;16.20;;;5.55;;
69621;SDS011;56841;55.964;37.674;2023-01-28T09:17:23;13.32;;;4.55;;
69621;SDS011;56841;55.964;37.674;2023-01-28T09:22:15;16.20;;;4.95;;
69621;SDS011;56841;55.964;37.674;2023-01-28T09:24:41;8.70;;;3.13;;
69621;SDS011;56841;55.964;37.674;2023-01-28T09:27:07;11.55;;;4.38;;
69621;SDS011;56841;55.964;37.674;2023-01-28T09:29:33;7.28;;;2.75;;
69621;SDS011;56841;55.964;37.674;2023-01-28T09:31:59;9.23;;;3.45;;
69621;SDS011;56841;55.964;37.674;2023-01-28T09:34:25;8.77;;;3.20;;
69621;SDS011;56841;55.964;37.674;2023-01-28T09:36:51;9.68;;;3.80;;
69621;SDS011;56841;55.964;37.674;2023-01-28T09:39:18;9.73;;;3.40;;
69621;SDS011;56841;55.964;37.674;2023-01-28T09:47:53;8.38;;;3.42;;
69621;SDS011;56841;55.964;37.674;2023-01-28T09:50:04;8.35;;;2.95;;
69621;SDS011;56841;55.964;37.674;2023-01-28T09:52:33;7.50;;;3.25;;
69621;SDS011;56841;55.964;37.674;2023-01-28T09:55:06;8.40;;;3.47;;
69621;SDS011;56841;55.964;37.674;2023-01-28T09:57:46;11.77;;;3.80;;
69621;SDS011;56841;55.964;37.674;2023-01-28T10:00:19;8.98;;;3.20;;
69621;SDS011;56841;55.964;37.674;2023-01-28T10:05:21;8.90;;;3.20;;
69621;SDS011;56841;55.964;37.674;2023-01-28T10:16:30;7.95;;;3.22;;
69621;SDS011;56841;55.964;37.674;2023-01-28T10:21:56;9.23;;;3.22;;
69621;SDS011;56841;55.964;37.674;2023-01-28T10:24:35;7.82;;;3.50;;
69621;SDS011;56841;55.964;37.674;2023-01-28T10:27:14;10.95;;;3.85;;
69621;SDS011;56841;55.964;37.674;2023-01-28T10:29:42;9.77;;;3.72;;
69621;SDS011;56841;55.964;37.674;2023-01-28T10:34:36;9.32;;;3.40;;
69621;SDS011;56841;55.964;37.674;2023-01-28T10:37:02;12.63;;;4.70;;
69621;SDS011;56841;55.964;37.674;2023-01-28T10:39:28;11.32;;;5.00;;
69621;SDS011;56841;55.964;37.674;2023-01-28T10:41:54;9.48;;;3.58;;
69621;SDS011;56841;55.964;37.674;2023-01-28T10:44:31;9.20;;;3.20;;
69621;SDS011;56841;55.964;37.674;2023-01-28T10:47:10;8.98;;;3.58;;
69621;SDS011;56841;55.964;37.674;2023-01-28T10:49:44;7.65;;;3.45;;
69621;SDS011;56841;55.964;37.674;2023-01-28T10:52:13;8.43;;;3.15;;
69621;SDS011;56841;55.964;37.674;2023-01-28T10:54:40;9.93;;;3.95;;
69621;SDS011;56841;55.964;37.674;2023-01-28T10:57:09;7.82;;;3.40;;
69621;SDS011;56841;55.964;37.674;2023-01-28T10:59:37;10.82;;;3.58;;
69621;SDS011;56841;55.964;37.674;2023-01-28T11:07:41;10.73;;;4.00;;
69621;SDS011;56841;55.964;37.674;2023-01-28T11:13:03;11.07;;;4.10;;
69621;SDS011;56841;55.964;37.674;2023-01-28T11:15:30;10.60;;;4.07;;
69621;SDS011;56841;55.964;37.674;2023-01-28T11:18:01;12.77;;;4.10;;
69621;SDS011;56841;55.964;37.674;2023-01-28T11:20:32;10.45;;;3.70;;
69621;SDS011;56841;55.964;37.674;2023-01-28T11:23:04;10.73;;;4.30;;
69621;SDS011;56841;55.964;37.674;2023-01-28T11:25:31;10.40;;;4.15;;
69621;SDS011;56841;55.964;37.674;2023-01-28T11:28:00;10.88;;;4.03;;
69621;SDS011;56841;55.964;37.674;2023-01-28T11:30:28;11.50;;;4.10;;
69621;SDS011;56841;55.964;37.674;2023-01-28T11:33:06;8.90;;;3.42;;
69621;SDS011;56841;55.964;37.674;2023-01-28T11:35:41;10.18;;;3.63;;
69621;SDS011;56841;55.964;37.674;2023-01-28T11:38:18;9.80;;;3.63;;
69621;SDS011;56841;55.964;37.674;2023-01-28T11:43:15;8.40;;;3.33;;
69621;SDS011;56841;55.964;37.674;2023-01-28T11:51:23;14.95;;;4.57;;
69621;SDS011;56841;55.964;37.674;2023-01-28T12:13:54;10.88;;;3.95;;
69621;SDS011;56841;55.964;37.674;2023-01-28T12:16:40;9.35;;;4.07;;
69621;SDS011;56841;55.964;37.674;2023-01-28T12:19:36;10.77;;;4.32;;
69621;SDS011;56841;55.964;37.674;2023-01-28T12:25:05;10.05;;;4.03;;
69621;SDS011;56841;55.964;37.674;2023-01-28T12:30:17;10.77;;;4.03;;
69621;SDS011;56841;55.964;37.674;2023-01-28T12:33:05;11.18;;;4.20;;
69621;SDS011;56841;55.964;37.674;2023-01-28T12:36:01;12.68;;;4.68;;
69621;SDS011;56841;55.964;37.674;2023-01-28T12:39:00;11.23;;;3.92;;
69621;SDS011;56841;55.964;37.674;2023-01-28T12:41:37;14.10;;;4.90;;
69621;SDS011;56841;55.964;37.674;2023-01-28T12:44:22;12.50;;;4.88;;
69621;SDS011;56841;55.964;37.674;2023-01-28T12:47:09;12.25;;;4.45;;
69621;SDS011;56841;55.964;37.674;2023-01-28T12:49:41;10.88;;;4.18;;
69621;SDS011;56841;55.964;37.674;2023-01-28T12:52:19;12.65;;;4.57;;
69621;SDS011;56841;55.964;37.674;2023-01-28T12:57:41;11.85;;;4.57;;
69621;SDS011;56841;55.964;37.674;2023-01-28T13:00:20;15.55;;;5.07;;
69621;SDS011;56841;55.964;37.674;2023-01-28T13:03:01;15.85;;;5.45;;
69621;SDS011;56841;55.964;37.674;2023-01-28T13:05:51;12.00;;;4.90;;
69621;SDS011;56841;55.964;37.674;2023-01-28T13:08:26;17.00;;;5.78;;
69621;SDS011;56841;55.964;37.674;2023-01-28T13:10:54;16.52;;;5.90;;
69621;SDS011;56841;55.964;37.674;2023-01-28T13:16:00;15.93;;;5.88;;
69621;SDS011;56841;55.964;37.674;2023-01-28T13:18:31;14.27;;;4.95;;
69621;SDS011;56841;55.964;37.674;2023-01-28T13:21:00;14.07;;;5.38;;
69621;SDS011;56841;55.964;37.674;2023-01-28T13:28:44;14.90;;;5.50;;
69621;SDS011;56841;55.964;37.674;2023-01-28T13:31:12;17.27;;;5.90;;
69621;SDS011;56841;55.964;37.674;2023-01-28T13:33:47;15.63;;;5.50;;
69621;SDS011;56841;55.964;37.674;2023-01-28T13:39:20;14.75;;;5.00;;
69621;SDS011;56841;55.964;37.674;2023-01-28T13:46:42;20.58;;;8.18;;
69621;SDS011;56841;55.964;37.674;2023-01-28T13:49:09;15.00;;;5.25;;
69621;SDS011;56841;55.964;37.674;2023-01-28T13:51:40;14.30;;;5.30;;
69621;SDS011;56841;55.964;37.674;2023-01-28T13:54:17;11.95;;;4.85;;
69621;SDS011;56841;55.964;37.674;2023-01-28T14:07:54;14.93;;;5.32;;
69621;SDS011;56841;55.964;37.674;2023-01-28T14:19:10;17.55;;;6.18;;
69621;SDS011;56841;55.964;37.674;2023-01-28T14:21:38;14.30;;;5.72;;
69621;SDS011;56841;55.964;37.674;2023-01-28T14:24:05;14.95;;;5.95;;
69621;SDS011;56841;55.964;37.674;2023-01-28T14:32:29;16.90;;;6.38;;
69621;SDS011;56841;55.964;37.674;2023-01-28T14:34:57;23.60;;;7.82;;
69621;SDS011;56841;55.964;37.674;2023-01-28T14:37:29;18.10;;;6.30;;
69621;SDS011;56841;55.964;37.674;2023-01-28T14:40:06;15.90;;;5.95;;
69621;SDS011;56841;55.964;37.674;2023-01-28T14:42:39;16.67;;;6.15;;
69621;SDS011;56841;55.964;37.674;2023-01-28T14:48:34;15.30;;;6.05;;
69621;SDS011;56841;55.964;37.674;2023-01-28T14:59:54;17.17;;;6.25;;
69621;SDS011;56841;55.964;37.674;2023-01-28T15:02:26;17.05;;;6.82;;
69621;SDS011;56841;55.964;37.674;2023-01-28T15:04:54;25.35;;;9.60;;
69621;SDS011;56841;55.964;37.674;2023-01-28T15:07:31;22.33;;;7.68;;
69621;SDS011;56841;55.964;37.674;2023-01-28T15:12:32;22.13;;;7.55;;
69621;SDS011;56841;55.964;37.674;2023-01-28T15:15:09;19.67;;;7.38;;
69621;SDS011;56841;55.964;37.674;2023-01-28T15:17:59;18.08;;;6.60;;
69621;SDS011;56841;55.964;37.674;2023-01-28T15:20:28;19.38;;;7.38;;
69621;SDS011;56841;55.964;37.674;2023-01-28T15:22:54;17.45;;;6.75;;
69621;SDS011;56841;55.964;37.674;2023-01-28T15:27:48;20.95;;;7.82;;
69621;SDS011;56841;55.964;37.674;2023-01-28T15:30:20;18.75;;;6.32;;
69621;SDS011;56841;55.964;37.674;2023-01-28T15:33:04;16.80;;;6.65;;
69621;SDS011;56841;55.964;37.674;2023-01-28T15:35:44;17.67;;;6.30;;
69621;SDS011;56841;55.964;37.674;2023-01-28T15:38:11;17.42;;;6.50;;
69621;SDS011;56841;55.964;37.674;2023-01-28T15:43:17;20.15;;;6.88;;
69621;SDS011;56841;55.964;37.674;2023-01-28T15:45:47;18.20;;;6.35;;
69621;SDS011;56841;55.964;37.674;2023-01-28T15:48:14;20.67;;;7.18;;
69621;SDS011;56841;55.964;37.674;2023-01-28T15:50:42;20.42;;;6.65;;
69621;SDS011;56841;55.964;37.674;2023-01-28T15:53:12;18.83;;;6.80;;
69621;SDS011;56841;55.964;37.674;2023-01-28T15:55:42;15.75;;;5.88;;
69621;SDS011;56841;55.964;37.674;2023-01-28T15:58:28;16.67;;;6.50;;
69621;SDS011;56841;55.964;37.674;2023-01-28T16:01:28;17.90;;;6.57;;
69621;SDS011;56841;55.964;37.674;2023-01-28T16:04:05;18.92;;;7.18;;
69621;SDS011;56841;55.964;37.674;2023-01-28T16:06:37;16.70;;;7.10;;
69621;SDS011;56841;55.964;37.674;2023-01-28T16:09:19;20.25;;;7.45;;
69621;SDS011;56841;55.964;37.674;2023-01-28T16:12:05;20.23;;;7.00;;
69621;SDS011;56841;55.964;37.674;2023-01-28T16:17:01;20.40;;;7.10;;
69621;SDS011;56841;55.964;37.674;2023-01-28T16:22:18;26.77;;;9.23;;
69621;SDS011;56841;55.964;37.674;2023-01-28T16:24:49;19.73;;;8.05;;
69621;SDS011;56841;55.964;37.674;2023-01-28T16:29:50;20.85;;;8.02;;
69621;SDS011;56841;55.964;37.674;2023-01-28T16:34:58;26.33;;;9.02;;
69621;SDS011;56841;55.964;37.674;2023-01-28T16:37:24;25.63;;;9.65;;
69621;SDS011;56841;55.964;37.674;2023-01-28T16:39:51;19.73;;;6.65;;
69621;SDS011;56841;55.964;37.674;2023-01-28T16:44:42;27.15;;;10.25;;
69621;SDS011;56841;55.964;37.674;2023-01-28T16:49:34;26.77;;;9.32;;
69621;SDS011;56841;55.964;37.674;2023-01-28T16:52:00;26.15;;;8.85;;
69621;SDS011;56841;55.964;37.674;2023-01-28T16:54:27;25.42;;;9.52;;
69621;SDS011;56841;55.964;37.674;2023-01-28T16:59:20;33.92;;;11.10;;
69621;SDS011;56841;55.964;37.674;2023-01-28T17:04:11;27.65;;;10.40;;
69621;SDS011;56841;55.964;37.674;2023-01-28T17:06:37;40.95;;;13.73;;
69621;SDS011;56841;55.964;37.674;2023-01-28T17:09:04;22.73;;;8.00;;
69621;SDS011;56841;55.964;37.674;2023-01-28T17:13:56;20.90;;;7.50;;
69621;SDS011;56841;55.964;37.674;2023-01-28T17:18:49;16.35;;;6.32;;
69621;SDS011;56841;55.964;37.674;2023-01-28T17:21:15;17.20;;;6.72;;
69621;SDS011;56841;55.964;37.674;2023-01-28T17:26:07;16.15;;;6.05;;
69621;SDS011;56841;55.964;37.674;2023-01-28T17:28:34;17.52;;;6.60;;
69621;SDS011;56841;55.964;37.674;2023-01-28T17:33:30;20.05;;;6.82;;
69621;SDS011;56841;55.964;37.674;2023-01-28T17:38:22;17.75;;;6.93;;
69621;SDS011;56841;55.964;37.674;2023-01-28T17:40:48;16.83;;;5.95;;
69621;SDS011;56841;55.964;37.674;2023-01-28T17:45:39;19.65;;;6.18;;
69621;SDS011;56841;55.964;37.674;2023-01-28T17:48:07;18.98;;;6.90;;
69621;SDS011;56841;55.964;37.674;2023-01-28T17:50:35;19.63;;;6.53;;
69621;SDS011;56841;55.964;37.674;2023-01-28T17:53:03;18.88;;;6.13;;
69621;SDS011;56841;55.964;37.674;2023-01-28T17:55:30;15.30;;;5.90;;
69621;SDS011;56841;55.964;37.674;2023-01-28T17:57:59;17.63;;;5.85;;
69621;SDS011;56841;55.964;37.674;2023-01-28T18:02:51;16.27;;;6.38;;
69621;SDS011;56841;55.964;37.674;2023-01-28T18:07:44;13.80;;;5.03;;
69621;SDS011;56841;55.964;37.674;2023-01-28T18:10:11;16.63;;;5.75;;
69621;SDS011;56841;55.964;37.674;2023-01-28T18:12:38;17.52;;;6.40;;
69621;SDS011;56841;55.964;37.674;2023-01-28T18:15:04;20.25;;;6.88;;
69621;SDS011;56841;55.964;37.674;2023-01-28T18:17:31;19.45;;;6.88;;
69621;SDS011;56841;55.964;37.674;2023-01-28T18:22:23;18.90;;;6.30;;
69621;SDS011;56841;55.964;37.674;2023-01-28T18:24:49;17.90;;;6.35;;
69621;SDS011;56841;55.964;37.674;2023-01-28T18:27:15;21.17;;;7.03;;
69621;SDS011;56841;55.964;37.674;2023-01-28T18:29:42;20.05;;;6.80;;
69621;SDS011;56841;55.964;37.674;2023-01-28T18:32:11;20.90;;;7.65;;
69621;SDS011;56841;55.964;37.674;2023-01-28T18:37:02;21.15;;;6.97;;
69621;SDS011;56841;55.964;37.674;2023-01-28T18:39:31;22.35;;;8.02;;
69621;SDS011;56841;55.964;37.674;2023-01-28T18:41:57;36.85;;;12.57;;
69621;SDS011;56841;55.964;37.674;2023-01-28T18:46:50;20.83;;;7.95;;
69621;SDS011;56841;55.964;37.674;2023-01-28T18:49:17;20.90;;;7.13;;
69621;SDS011;56841;55.964;37.674;2023-01-28T18:51:43;20.00;;;7.60;;
69621;SDS011;56841;55.964;37.674;2023-01-28T18:56:36;22.50;;;7.80;;
69621;SDS011;56841;55.964;37.674;2023-01-28T18:59:03;29.05;;;9.35;;
69621;SDS011;56841;55.964;37.674;2023-01-28T19:01:31;28.90;;;9.68;;
69621;SDS011;56841;55.964;37.674;2023-01-28T19:03:58;23.35;;;7.85;;
69621;SDS011;56841;55.964;37.674;2023-01-28T19:06:25;25.80;;;8.82;;
69621;SDS011;56841;55.964;37.674;2023-01-28T19:08:53;27.63;;;9.57;;
69621;SDS011;56841;55.964;37.674;2023-01-28T19:11:21;30.65;;;9.65;;
69621;SDS011;56841;55.964;37.674;2023-01-28T19:13:48;23.25;;;8.07;;